Time;durP1;ratioP1;P1;durP2;ratioP2;P2;SDS_P1;SDS_P2;PMS_P1;PMS_P2;Temp;Humidity;BMP_temperature;BMP_pressure;BME280_temperature;BME280_humidity;BME280_pressure;Samples;Min_cycle;Max_cycle;Signal;HPM_P1;HPM_P2
2022/06/07 00:02:15;;;;;;;3.75;3.28;;;;;;;13.54;100.00;96493.19;10303415;28;20580;-57
2022/06/07 00:07:15;;;;;;;3.20;2.65;;;;;;;13.62;100.00;96477.28;10328487;28;20232;-56
2022/06/07 00:12:17;;;;;;;3.83;2.25;;;;;;;13.72;100.00;96485.75;10328386;28;20202;-58
2022/06/07 00:17:17;;;;;;;4.15;2.30;;;;;;;13.72;100.00;96479.63;10327354;28;20240;-53
2022/06/07 00:22:18;;;;;;;3.25;2.20;;;;;;;13.80;100.00;96479.56;10328182;28;20193;-58
2022/06/07 00:27:19;;;;;;;6.22;2.22;;;;;;;13.78;100.00;96472.84;10327075;28;20280;-57
2022/06/07 00:32:19;;;;;;;3.25;2.40;;;;;;;13.64;100.00;96469.22;10328090;28;20189;-57
2022/06/07 00:37:20;;;;;;;4.07;2.50;;;;;;;13.58;100.00;96473.38;10325817;28;20214;-57
2022/06/07 00:42:20;;;;;;;4.47;2.58;;;;;;;13.58;100.00;96467.31;10327085;28;20193;-52
2022/06/07 00:47:23;;;;;;;3.53;2.60;;;;;;;13.36;100.00;96462.75;10342035;28;20299;-58
2022/06/07 00:52:27;;;;;;;3.58;2.17;;;;;;;13.32;100.00;96471.16;10326510;28;20272;-54
2022/06/07 00:57:29;;;;;;;3.28;2.38;;;;;;;13.35;100.00;96473.44;10341643;28;20209;-55
2022/06/07 01:02:29;;;;;;;3.00;2.65;;;;;;;13.46;100.00;96475.66;10324385;28;20186;-54
2022/06/07 01:12:51;;;;;;;3.10;2.70;;;;;;;13.55;100.00;96466.69;10324296;28;20194;-58
2022/06/07 01:17:56;;;;;;;2.67;2.38;;;;;;;13.59;100.00;96455.78;10324228;28;20233;-56
2022/06/07 01:22:57;;;;;;;3.03;2.55;;;;;;;13.47;100.00;96464.13;10324669;28;20194;-59
2022/06/07 01:27:58;;;;;;;2.97;2.55;;;;;;;13.48;100.00;96455.22;10324819;28;20256;-55
2022/06/07 01:32:59;;;;;;;4.38;2.63;;;;;;;13.48;100.00;96452.59;10324340;28;20189;-55
2022/06/07 01:37:59;;;;;;;2.78;2.47;;;;;;;13.50;100.00;96447.97;10325095;28;20708;-53
2022/06/07 01:43:00;;;;;;;2.70;2.45;;;;;;;13.62;100.00;96444.91;10323867;28;20553;-58
2022/06/07 01:48:00;;;;;;;5.35;2.67;;;;;;;13.44;100.00;96435.53;10323437;28;20245;-59
2022/06/07 01:53:01;;;;;;;3.53;2.50;;;;;;;13.44;100.00;96430.25;10323917;28;20217;-53
2022/06/07 01:58:03;;;;;;;3.35;2.83;;;;;;;13.16;100.00;96428.22;10323492;28;20221;-52
2022/06/07 02:03:04;;;;;;;3.03;2.72;;;;;;;13.06;100.00;96427.66;10323354;28;20210;-56
2022/06/07 02:08:04;;;;;;;3.28;2.88;;;;;;;12.97;100.00;96426.09;10325824;28;20217;-53
2022/06/07 02:13:08;;;;;;;4.15;2.80;;;;;;;12.87;100.00;96420.31;10332792;28;20189;-53
2022/06/07 02:18:08;;;;;;;2.97;2.78;;;;;;;12.80;100.00;96412.28;10332270;28;20577;-57
2022/06/07 02:23:17;;;;;;;5.13;2.80;;;;;;;12.65;100.00;96414.91;10331628;28;20197;-55
2022/06/07 02:28:19;;;;;;;8.25;3.03;;;;;;;12.63;100.00;96407.19;10330634;28;20226;-57
2022/06/07 02:33:20;;;;;;;2.80;2.60;;;;;;;12.59;100.00;96411.16;10332758;28;20213;-58
2022/06/07 02:38:22;;;;;;;7.32;3.15;;;;;;;12.61;100.00;96418.88;10330817;28;20214;-53
2022/06/07 02:43:23;;;;;;;5.85;2.72;;;;;;;12.67;100.00;96418.97;10331965;28;20201;-55
2022/06/07 02:48:24;;;;;;;7.13;3.03;;;;;;;12.70;100.00;96402.03;10331619;28;20320;-52
2022/06/07 02:53:25;;;;;;;3.03;2.65;;;;;;;12.73;100.00;96404.31;10331080;28;20197;-52
2022/06/07 02:58:25;;;;;;;4.05;2.70;;;;;;;12.80;100.00;96407.88;10329983;28;20719;-53
2022/06/07 03:03:27;;;;;;;5.13;2.70;;;;;;;12.89;100.00;96413.03;10328670;28;20221;-55
2022/06/07 03:08:29;;;;;;;3.97;3.10;;;;;;;12.97;100.00;96416.44;10331027;28;20233;-58
2022/06/07 03:13:34;;;;;;;2.67;2.40;;;;;;;13.13;100.00;96422.53;10330354;28;20190;-58
2022/06/07 03:18:36;;;;;;;2.40;2.30;;;;;;;13.17;100.00;96416.72;10328356;28;20287;-53
2022/06/07 03:23:37;;;;;;;3.88;2.63;;;;;;;13.25;100.00;96421.06;10329910;28;20800;-53
2022/06/07 03:28:42;;;;;;;3.10;2.70;;;;;;;13.38;100.00;96417.84;10329141;28;20229;-53
2022/06/07 03:33:47;;;;;;;3.42;2.67;;;;;;;13.27;100.00;96416.44;10329372;28;20189;-56
2022/06/07 03:38:48;;;;;;;3.10;2.42;;;;;;;13.42;100.00;96420.94;10330075;28;20607;-54
2022/06/07 03:43:50;;;;;;;2.88;2.53;;;;;;;13.43;100.00;96399.72;10329132;28;20723;-53
2022/06/07 03:48:51;;;;;;;4.15;2.80;;;;;;;13.43;100.00;96407.59;10329620;28;20237;-54
2022/06/07 03:53:52;;;;;;;3.75;2.78;;;;;;;13.44;100.00;96408.41;10328561;28;20194;-53
2022/06/07 03:58:54;;;;;;;4.05;3.00;;;;;;;13.51;100.00;96415.41;10328099;28;20202;-53
2022/06/07 04:03:59;;;;;;;2.95;2.65;;;;;;;13.43;100.00;96407.59;10327911;28;20197;-56
2022/06/07 04:08:59;;;;;;;4.28;2.80;;;;;;;13.43;100.00;96412.88;10328264;28;20222;-53
2022/06/07 04:14:02;;;;;;;4.65;2.92;;;;;;;13.49;100.00;96408.66;10328962;28;20202;-56
2022/06/07 04:19:03;;;;;;;5.00;2.90;;;;;;;13.50;100.00;96407.69;10328696;28;20214;-53
2022/06/07 04:24:04;;;;;;;2.95;2.63;;;;;;;13.62;100.00;96410.69;10328616;28;20186;-53
2022/06/07 04:29:07;;;;;;;3.38;2.67;;;;;;;13.68;100.00;96409.94;10326707;28;20217;-52
2022/06/07 04:34:10;;;;;;;5.97;2.60;;;;;;;13.97;100.00;96414.34;10326827;28;20204;-53
2022/06/07 04:39:12;;;;;;;3.38;2.53;;;;;;;14.09;100.00;96412.84;10326703;28;20213;-53
2022/06/07 04:44:24;;;;;;;3.10;2.85;;;;;;;14.34;100.00;96406.41;10326406;28;20245;-55
2022/06/07 04:49:27;;;;;;;5.93;2.88;;;;;;;14.33;100.00;96402.16;10326192;28;20248;-56
2022/06/07 04:54:28;;;;;;;3.15;2.85;;;;;;;14.46;100.00;96407.56;10325947;28;20193;-53
2022/06/07 04:59:32;;;;;;;3.75;3.13;;;;;;;14.65;100.00;96405.31;10327311;28;20236;-57
2022/06/07 05:04:35;;;;;;;6.53;2.88;;;;;;;14.72;100.00;96411.47;10325872;28;20218;-56
2022/06/07 05:09:51;;;;;;;2.90;2.70;;;;;;;14.97;100.00;96402.09;10326127;28;20589;-59
2022/06/07 05:15:01;;;;;;;4.32;3.13;;;;;;;15.06;100.00;96401.97;10325073;28;20332;-59
2022/06/07 05:20:09;;;;;;;5.10;3.03;;;;;;;15.14;100.00;96404.47;10325550;28;20174;-58
2022/06/07 05:25:09;;;;;;;5.07;3.08;;;;;;;15.09;100.00;96407.69;10324986;28;20248;-58
2022/06/07 05:30:15;;;;;;;5.07;3.15;;;;;;;15.30;100.00;96404.16;10325513;28;20198;-59
2022/06/07 05:35:42;;;;;;;6.72;3.00;;;;;;;15.52;100.00;96393.53;10325178;28;20594;-55
2022/06/07 05:40:47;;;;;;;6.00;3.28;;;;;;;15.60;100.00;96409.19;10326025;28;20198;-54
2022/06/07 05:45:53;;;;;;;3.42;3.00;;;;;;;15.66;100.00;96410.25;10332020;28;20268;-57
2022/06/07 05:51:07;;;;;;;5.45;3.15;;;;;;;15.58;100.00;96416.50;10334027;28;20257;-59
2022/06/07 05:56:11;;;;;;;4.90;3.33;;;;;;;15.62;100.00;96422.19;10399510;23;20243;-53
2022/06/07 06:01:16;;;;;;;6.65;3.67;;;;;;;15.75;100.00;96427.56;10390087;28;20195;-58
2022/06/07 06:06:21;;;;;;;3.60;3.10;;;;;;;15.58;100.00;96437.63;10373954;28;20280;-58
2022/06/07 06:11:27;;;;;;;6.82;3.50;;;;;;;15.74;100.00;96438.31;10372983;28;20276;-54
2022/06/07 06:16:39;;;;;;;4.47;3.47;;;;;;;15.70;100.00;96444.00;10331477;28;20198;-57
2022/06/07 06:21:43;;;;;;;5.57;3.65;;;;;;;16.07;100.00;96441.13;10332160;28;20194;-55
2022/06/07 06:26:44;;;;;;;3.65;3.20;;;;;;;16.11;100.00;96439.72;10331831;28;20579;-56
2022/06/07 06:31:50;;;;;;;5.72;3.30;;;;;;;16.20;100.00;96438.53;10333195;28;20185;-57
2022/06/07 06:36:51;;;;;;;3.40;3.10;;;;;;;16.18;100.00;96439.75;10331429;28;20213;-59
2022/06/07 06:41:54;;;;;;;8.80;3.95;;;;;;;15.98;100.00;96434.38;10331288;28;20194;-58
2022/06/07 06:47:04;;;;;;;8.23;3.47;;;;;;;16.17;100.00;96435.47;10330733;28;20218;-57
2022/06/07 06:52:06;;;;;;;5.05;2.95;;;;;;;16.30;100.00;96432.88;10323548;28;20719;-58
2022/06/07 06:57:07;;;;;;;4.20;3.20;;;;;;;16.32;100.00;96432.66;10329333;28;20724;-56
2022/06/07 07:02:10;;;;;;;5.57;3.28;;;;;;;16.54;100.00;96438.63;10329282;28;20212;-54
2022/06/07 07:07:21;;;;;;;3.10;2.80;;;;;;;16.76;100.00;96440.06;10313194;28;20303;-53
2022/06/07 07:12:21;;;;;;;5.20;3.60;;;;;;;16.76;100.00;96424.19;10327263;28;20221;-57
2022/06/07 07:17:30;;;;;;;5.22;2.80;;;;;;;17.18;100.00;96416.09;10327395;28;20182;-56
2022/06/07 07:22:31;;;;;;;3.40;2.65;;;;;;;17.46;100.00;96418.47;10328665;28;20206;-57
2022/06/07 07:27:32;;;;;;;3.38;3.08;;;;;;;17.33;100.00;96422.97;10328323;28;20218;-54
2022/06/07 07:32:35;;;;;;;3.13;2.83;;;;;;;17.88;100.00;96412.03;10329277;28;20364;-57
2022/06/07 07:37:37;;;;;;;8.50;3.60;;;;;;;16.88;100.00;96423.63;10329215;28;20194;-57
2022/06/07 07:42:43;;;;;;;4.15;3.75;;;;;;;17.33;100.00;96422.97;10343121;28;20361;-57
2022/06/07 07:47:50;;;;;;;9.13;3.47;;;;;;;17.60;99.54;96416.59;10327629;28;20210;-55
2022/06/07 07:52:51;;;;;;;6.78;3.63;;;;;;;18.26;93.97;96385.56;10328163;28;20230;-56
2022/06/07 07:57:51;;;;;;;6.43;3.70;;;;;;;18.04;94.02;96390.38;10326796;28;20827;-57
2022/06/07 08:02:55;;;;;;;4.20;3.45;;;;;;;17.78;91.34;96373.53;10327499;28;20209;-57
2022/06/07 08:08:04;;;;;;;5.57;3.15;;;;;;;18.54;89.07;96377.22;10326804;28;20254;-56
2022/06/07 08:13:05;;;;;;;6.70;3.10;;;;;;;18.17;89.71;96384.97;10326908;28;20601;-58
2022/06/07 08:18:06;;;;;;;5.05;3.63;;;;;;;18.40;88.99;96373.03;10326794;28;20186;-58
2022/06/07 08:23:07;;;;;;;5.18;3.95;;;;;;;18.79;88.48;96371.13;10327137;28;20206;-54
2022/06/07 08:28:08;;;;;;;6.72;3.75;;;;;;;19.09;85.77;96367.81;10326845;28;20217;-60
2022/06/07 08:38:27;;;;;;;4.85;3.20;;;;;;;19.12;84.53;96367.38;10326722;28;20716;-60
2022/06/07 08:43:27;;;;;;;5.43;3.53;;;;;;;19.65;81.18;96338.59;10326186;28;20218;-57
2022/06/07 08:48:32;;;;;;;4.13;3.25;;;;;;;19.47;81.77;96361.50;10325561;28;20272;-57
2022/06/07 08:53:38;;;;;;;5.13;3.80;;;;;;;18.27;89.03;96383.72;10323589;28;20704;-61
2022/06/07 08:58:41;;;;;;;5.35;3.63;;;;;;;18.79;88.98;96379.06;10324562;28;20273;-60
2022/06/07 09:03:55;;;;;;;5.20;3.80;;;;;;;18.97;84.47;96351.78;10326407;28;20225;-61
2022/06/07 09:08:57;;;;;;;4.53;4.07;;;;;;;18.46;86.04;96374.81;10325561;28;20225;-58
2022/06/07 09:13:58;;;;;;;10.20;4.85;;;;;;;17.68;90.87;96417.41;10320222;28;20221;-59
2022/06/07 09:18:58;;;;;;;5.20;4.32;;;;;;;18.51;87.32;96390.91;10324162;28;20198;-58
2022/06/07 09:23:59;;;;;;;4.03;3.60;;;;;;;17.65;87.73;96384.97;10325054;28;20295;-60
2022/06/07 09:29:27;;;;;;;3.25;2.83;;;;;;;17.77;85.46;96361.31;10325134;28;20217;-59
2022/06/07 09:34:29;;;;;;;6.13;3.25;;;;;;;18.40;84.94;96375.69;10322610;28;20229;-54
2022/06/07 09:39:33;;;;;;;5.82;2.70;;;;;;;18.79;80.95;96333.97;10325206;28;20197;-54
2022/06/07 09:44:39;;;;;;;3.53;2.30;;;;;;;19.25;78.50;96326.59;10325142;28;20662;-59
2022/06/07 09:49:51;;;;;;;3.47;2.67;;;;;;;18.43;78.02;96316.09;10323616;28;20293;-56
2022/06/07 09:54:58;;;;;;;7.72;2.80;;;;;;;17.89;83.41;96371.28;10323299;28;20311;-55
2022/06/07 10:00:19;;;;;;;5.93;2.65;;;;;;;17.69;84.61;96368.66;10324551;28;20186;-55
2022/06/07 10:05:24;;;;;;;5.18;2.50;;;;;;;17.95;81.53;96346.59;10324278;28;20598;-54
2022/06/07 10:10:43;;;;;;;4.20;2.03;;;;;;;18.82;81.29;96345.97;10324446;28;20205;-57
2022/06/07 10:15:59;;;;;;;2.55;2.20;;;;;;;18.10;83.87;96372.78;10327907;28;20803;-57
2022/06/07 10:21:08;;;;;;;2.92;2.28;;;;;;;18.97;78.84;96324.41;10324547;28;20208;-54
2022/06/07 10:26:29;;;;;;;3.92;1.90;;;;;;;19.63;74.50;96279.53;10320428;28;20229;-55
2022/06/07 10:31:40;;;;;;;2.42;1.90;;;;;;;19.16;75.66;96304.03;10327052;28;20201;-51
2022/06/07 10:37:03;;;;;;;2.05;1.63;;;;;;;19.28;75.21;96312.03;10330444;28;20206;-52
2022/06/07 10:42:11;;;;;;;2.25;1.60;;;;;;;20.02;73.83;96293.38;10331016;28;20236;-53
2022/06/07 10:47:18;;;;;;;2.72;1.40;;;;;;;19.81;70.07;96237.00;10330131;28;20225;-52
2022/06/07 10:52:35;;;;;;;2.03;1.70;;;;;;;19.02;72.20;96268.81;10328960;28;20712;-53
2022/06/07 10:58:00;;;;;;;2.45;1.60;;;;;;;18.92;71.56;96260.56;10328585;28;20204;-55
2022/06/07 11:03:11;;;;;;;4.50;1.70;;;;;;;20.19;69.62;96251.78;10327137;28;20206;-57
2022/06/07 11:14:18;;;;;;;1.63;1.40;;;;;;;20.24;68.53;96237.78;10328153;28;20213;-59
2022/06/07 11:19:18;;;;;;;2.08;1.60;;;;;;;19.76;70.20;96260.78;10329327;28;20191;-59
2022/06/07 11:24:28;;;;;;;1.15;1.08;;;;;;;20.35;65.41;96193.63;10329381;28;20692;-60
2022/06/07 11:29:31;;;;;;;3.63;1.13;;;;;;;20.42;65.77;96212.94;10328043;28;20752;-60
2022/06/07 11:34:36;;;;;;;1.38;1.20;;;;;;;19.45;70.48;96269.75;10328956;28;20595;-59
2022/06/07 11:39:39;;;;;;;1.13;0.98;;;;;;;18.94;71.58;96285.03;10327665;28;20272;-57
2022/06/07 11:44:43;;;;;;;1.35;1.15;;;;;;;19.19;71.01;96264.56;10328230;28;20238;-55
2022/06/07 11:49:49;;;;;;;4.25;1.50;;;;;;;19.36;70.24;96258.66;10329115;28;20249;-55
2022/06/07 11:54:54;;;;;;;0.98;0.98;;;;;;;18.98;70.20;96249.06;10327923;28;20234;-58
2022/06/07 12:00:00;;;;;;;2.90;1.67;;;;;;;18.97;71.28;96258.06;10326015;28;20240;-59
2022/06/07 12:11:26;;;;;;;3.47;1.42;;;;;;;19.22;70.89;96248.19;10328543;28;20186;-58
2022/06/07 12:16:33;;;;;;;7.10;1.60;;;;;;;20.22;67.67;96195.47;10327465;28;20268;-58
2022/06/07 12:21:40;;;;;;;3.40;1.50;;;;;;;20.54;66.30;96181.81;10327385;28;20191;-60
2022/06/07 12:26:45;;;;;;;3.28;1.60;;;;;;;19.74;66.47;96191.91;10314422;28;20262;-59
2022/06/07 12:31:49;;;;;;;2.15;1.40;;;;;;;20.61;64.27;96155.06;10302092;28;20265;-56
2022/06/07 12:36:58;;;;;;;2.35;1.30;;;;;;;21.09;66.14;96207.22;10324870;28;20719;-56
2022/06/07 12:42:03;;;;;;;1.30;1.20;;;;;;;21.06;63.50;96158.91;10326201;28;20196;-56
2022/06/07 12:47:05;;;;;;;3.95;1.10;;;;;;;21.17;63.52;96156.22;10325818;28;20276;-59
2022/06/07 12:52:34;;;;;;;2.35;1.27;;;;;;;21.38;63.86;96165.41;10340038;28;20221;-58
2022/06/07 12:57:59;;;;;;;5.00;1.27;;;;;;;22.08;62.20;96146.59;10357388;28;20186;-57
2022/06/07 13:03:32;;;;;;;1.95;1.40;;;;;;;21.56;61.97;96139.63;10352923;28;20222;-58
2022/06/07 13:08:40;;;;;;;4.45;1.15;;;;;;;21.97;59.78;96102.94;10324701;28;20233;-55
2022/06/07 13:13:44;;;;;;;1.60;1.33;;;;;;;21.64;65.20;96211.22;10325413;28;20214;-57
2022/06/07 13:19:00;;;;;;;1.52;1.27;;;;;;;21.84;63.49;96173.44;10324191;28;20205;-58
2022/06/07 13:24:01;;;;;;;2.08;1.55;;;;;;;21.37;61.13;96105.16;10325078;28;20205;-58
2022/06/07 13:29:09;;;;;;;3.00;1.60;;;;;;;20.81;62.05;96120.09;10325174;28;20233;-57
2022/06/07 13:34:37;;;;;;;3.70;1.40;;;;;;;21.35;63.27;96157.88;10322957;28;20320;-57
2022/06/07 13:40:01;;;;;;;8.40;1.50;;;;;;;21.63;63.79;96176.81;10323754;28;20208;-53
2022/06/07 13:45:11;;;;;;;2.33;1.30;;;;;;;21.07;65.43;96192.50;10324558;28;20225;-59
2022/06/07 13:55:53;;;;;;;8.05;1.90;;;;;;;20.23;68.21;96233.50;10323767;28;20245;-58
2022/06/07 14:01:00;;;;;;;4.70;2.22;;;;;;;19.59;71.63;96290.63;10323506;28;20622;-58
2022/06/07 14:06:01;;;;;;;4.00;1.80;;;;;;;19.42;73.45;96303.72;10328748;28;20236;-57
2022/06/07 14:11:01;;;;;;;5.93;1.88;;;;;;;19.64;72.00;96281.19;10332917;28;20198;-58
2022/06/07 14:16:02;;;;;;;5.20;2.08;;;;;;;19.38;72.61;96285.78;10331884;28;20205;-58
2022/06/07 14:21:02;;;;;;;5.90;1.77;;;;;;;20.27;70.61;96255.94;10332685;28;20206;-58
2022/06/07 14:26:03;;;;;;;1.85;1.40;;;;;;;23.06;62.49;96156.75;10331670;28;20226;-57
2022/06/07 14:31:06;;;;;;;4.72;1.70;;;;;;;24.28;57.59;96103.81;10331126;28;20198;-59
2022/06/07 14:36:06;;;;;;;4.97;1.60;;;;;;;24.15;56.14;96064.91;10329491;28;20234;-57
2022/06/07 14:41:07;;;;;;;2.22;1.38;;;;;;;25.27;50.58;95962.66;10329769;28;20277;-56
2022/06/07 14:46:27;;;;;;;7.57;1.88;;;;;;;26.32;49.67;95971.03;10330888;28;20234;-59
2022/06/07 14:51:35;;;;;;;4.13;1.75;;;;;;;26.74;47.75;95952.03;10329959;28;20205;-57
2022/06/07 14:56:37;;;;;;;2.63;1.10;;;;;;;25.81;49.31;95961.25;10329771;28;20233;-59
2022/06/07 15:01:44;;;;;;;2.85;1.80;;;;;;;24.84;49.42;95953.25;10328531;28;20577;-57
2022/06/07 15:06:45;;;;;;;2.65;1.45;;;;;;;22.55;53.34;95988.72;10330249;28;20225;-56
2022/06/07 15:11:45;;;;;;;1.70;1.40;;;;;;;22.05;57.37;96067.88;10328365;28;20194;-56
2022/06/07 15:16:56;;;;;;;3.13;1.38;;;;;;;24.18;51.55;95992.13;10328435;28;20213;-59
2022/06/07 15:21:57;;;;;;;3.03;1.60;;;;;;;25.06;50.54;95988.66;10327118;28;20641;-55
2022/06/07 15:26:57;;;;;;;2.58;1.50;;;;;;;25.67;48.06;95936.09;10328631;28;20220;-57
2022/06/07 15:32:14;;;;;;;2.30;1.30;;;;;;;25.51;49.08;95964.78;10328831;28;20546;-55
2022/06/07 15:37:15;;;;;;;1.85;1.38;;;;;;;24.26;52.14;95997.00;10335019;28;20557;-59
2022/06/07 15:47:38;;;;;;;3.75;1.40;;;;;;;21.95;56.70;96051.72;10326041;28;20213;-54
2022/06/07 15:52:38;;;;;;;2.30;1.70;;;;;;;21.02;61.25;96116.78;10325711;28;20241;-57
2022/06/07 16:03:00;;;;;;;1.48;1.05;;;;;;;20.71;61.91;96117.25;10325243;28;20214;-55
2022/06/07 16:08:03;;;;;;;5.32;1.25;;;;;;;21.13;58.97;96071.69;10324654;28;20213;-58
2022/06/07 16:13:04;;;;;;;1.48;1.38;;;;;;;21.80;56.47;96024.84;10327834;28;20210;-59
2022/06/07 16:18:05;;;;;;;2.55;1.00;;;;;;;22.22;55.13;96013.66;10325666;28;20718;-59
2022/06/07 16:23:05;;;;;;;3.53;1.10;;;;;;;22.73;51.16;95930.69;10325807;28;20210;-60
2022/06/07 16:33:27;;;;;;;2.70;1.13;;;;;;;23.40;50.70;95945.41;10326178;28;20571;-56
2022/06/07 16:38:32;;;;;;;1.13;0.90;;;;;;;23.88;50.08;95942.78;10326196;28;20852;-58
2022/06/07 16:48:55;;;;;;;1.63;1.17;;;;;;;23.76;50.73;95975.03;10321396;28;20236;-60
2022/06/07 16:53:57;;;;;;;3.28;1.00;;;;;;;23.35;50.66;95972.09;10310158;28;20229;-58
2022/06/07 16:58:59;;;;;;;1.10;1.00;;;;;;;23.37;50.58;95970.00;10325028;28;20657;-59
2022/06/07 17:04:00;;;;;;;2.63;1.27;;;;;;;23.36;51.82;96003.13;10325130;28;20280;-60
2022/06/07 17:09:01;;;;;;;4.57;1.45;;;;;;;23.51;51.02;95981.84;10321729;28;20232;-59
2022/06/07 17:14:01;;;;;;;3.75;1.27;;;;;;;23.06;52.54;96009.81;10325204;28;20610;-60
2022/06/07 17:19:04;;;;;;;1.65;1.00;;;;;;;22.36;53.71;96020.28;10323320;28;20178;-60
2022/06/07 17:24:05;;;;;;;2.50;1.17;;;;;;;22.02;53.94;96003.53;10323094;28;20249;-60
2022/06/07 17:29:06;;;;;;;2.33;1.25;;;;;;;22.31;53.79;96009.50;10323203;28;20296;-59
2022/06/07 17:34:07;;;;;;;2.63;1.17;;;;;;;22.51;53.77;96022.31;10324899;28;20202;-60
2022/06/07 17:39:08;;;;;;;1.88;1.23;;;;;;;22.35;55.93;96055.22;10332004;28;20190;-58
2022/06/07 17:44:09;;;;;;;4.82;1.10;;;;;;;21.99;57.13;96074.19;10334558;28;20297;-59
2022/06/07 17:49:09;;;;;;;0.93;0.82;;;;;;;22.07;55.36;96039.09;10332795;28;20240;-58
2022/06/07 17:54:11;;;;;;;2.80;1.00;;;;;;;22.09;54.51;96014.81;10331931;28;20591;-58
2022/06/07 17:59:11;;;;;;;1.20;1.10;;;;;;;22.16;54.52;96026.13;10327654;28;20610;-59
2022/06/07 18:04:11;;;;;;;3.28;1.10;;;;;;;21.75;55.56;96041.56;10310216;28;20225;-59
2022/06/07 18:09:12;;;;;;;2.55;1.00;;;;;;;21.45;56.45;96056.00;10333575;28;20213;-59
2022/06/07 18:14:12;;;;;;;3.20;1.30;;;;;;;20.73;59.73;96125.81;10335067;28;20209;-57
2022/06/07 18:19:12;;;;;;;1.95;1.10;;;;;;;20.44;60.57;96131.84;10316213;23;20338;-61
2022/06/07 18:24:13;;;;;;;2.00;1.15;;;;;;;19.63;65.03;96210.47;10306829;28;20206;-54
2022/06/07 18:29:13;;;;;;;5.03;1.40;;;;;;;19.29;67.12;96218.88;10334636;28;20228;-57
2022/06/07 18:34:16;;;;;;;2.05;1.38;;;;;;;18.44;70.36;96260.19;10323468;28;20684;-60
2022/06/07 18:39:16;;;;;;;2.75;1.20;;;;;;;18.33;71.07;96260.88;10316948;28;20218;-59
2022/06/07 18:44:17;;;;;;;1.30;1.20;;;;;;;17.80;74.62;96292.00;10371304;28;20709;-57
2022/06/07 18:49:17;;;;;;;4.25;1.27;;;;;;;17.04;77.08;96287.41;10375218;28;20727;-57
2022/06/07 18:54:23;;;;;;;5.40;1.40;;;;;;;15.32;85.52;96293.94;10372145;28;20709;-58
2022/06/07 18:59:23;;;;;;;1.73;1.30;;;;;;;15.08;89.28;96268.03;10366765;28;20735;-55
2022/06/07 19:04:24;;;;;;;2.33;1.85;;;;;;;15.08;90.92;96273.31;10305462;28;20198;-58
2022/06/07 19:09:24;;;;;;;1.70;1.60;;;;;;;14.87;93.63;96282.13;10320766;28;20280;-59
2022/06/07 19:14:25;;;;;;;1.70;1.50;;;;;;;14.62;94.95;96291.34;10307518;28;20207;-61
2022/06/07 19:19:25;;;;;;;4.28;1.90;;;;;;;14.45;100.00;96295.22;10286810;28;20231;-59
2022/06/07 19:24:26;;;;;;;2.70;2.05;;;;;;;14.22;100.00;96298.06;10286514;28;20992;-58
2022/06/07 19:29:27;;;;;;;5.32;2.40;;;;;;;14.03;100.00;96313.50;10288658;28;20222;-60
2022/06/07 19:34:27;;;;;;;5.32;1.90;;;;;;;14.14;100.00;96314.81;10290230;28;20199;-56
2022/06/07 19:39:27;;;;;;;3.78;2.10;;;;;;;14.19;100.00;96309.78;10289767;28;20301;-58
2022/06/07 19:44:29;;;;;;;3.50;1.98;;;;;;;14.03;100.00;96305.59;10316843;28;20197;-56
2022/06/07 19:49:32;;;;;;;3.80;2.13;;;;;;;13.94;100.00;96319.09;10328039;28;20276;-57
2022/06/07 19:54:32;;;;;;;2.28;1.83;;;;;;;13.93;100.00;96318.25;10329565;28;20703;-59
2022/06/07 19:59:34;;;;;;;2.95;2.05;;;;;;;13.94;100.00;96319.09;10360974;28;20240;-57
2022/06/07 20:04:39;;;;;;;7.85;2.20;;;;;;;13.89;100.00;96320.47;10327490;28;20830;-59
2022/06/07 20:09:39;;;;;;;6.90;2.72;;;;;;;13.76;100.00;96320.31;10328794;28;20248;-54
2022/06/07 20:14:40;;;;;;;3.08;2.15;;;;;;;13.56;100.00;96320.91;10328164;28;20284;-54
2022/06/07 20:19:40;;;;;;;3.58;2.63;;;;;;;13.53;100.00;96333.63;10328152;28;20269;-54
2022/06/07 20:24:41;;;;;;;3.40;3.10;;;;;;;13.60;100.00;96334.53;10328394;28;20290;-59
2022/06/07 20:29:41;;;;;;;4.13;3.70;;;;;;;13.58;100.00;96330.44;10327849;28;20296;-59
2022/06/07 20:34:42;;;;;;;5.18;3.88;;;;;;;13.51;100.00;96330.38;10328112;28;20720;-58
2022/06/07 20:39:42;;;;;;;9.65;4.50;;;;;;;13.48;100.00;96322.84;10327272;28;20688;-59
2022/06/07 20:44:43;;;;;;;8.90;5.90;;;;;;;13.45;100.00;96328.47;10327231;28;20190;-58
2022/06/07 20:49:46;;;;;;;7.75;6.57;;;;;;;13.39;100.00;96322.13;10327525;28;20265;-55
2022/06/07 20:54:46;;;;;;;10.10;7.78;;;;;;;13.20;100.00;96326.94;10327171;28;20673;-54
2022/06/07 20:59:46;;;;;;;9.52;8.57;;;;;;;13.05;100.00;96326.13;10327354;28;20210;-53
2022/06/07 21:04:49;;;;;;;13.60;9.27;;;;;;;12.97;100.00;96320.94;10326428;28;20189;-58
2022/06/07 21:09:49;;;;;;;14.93;9.77;;;;;;;12.98;100.00;96323.38;10327089;28;20217;-57
2022/06/07 21:14:50;;;;;;;14.25;11.35;;;;;;;12.89;100.00;96327.09;10326244;28;20193;-55
2022/06/07 21:19:50;;;;;;;15.70;13.32;;;;;;;12.92;100.00;96320.66;10326594;28;20264;-59
2022/06/07 21:24:51;;;;;;;15.15;13.55;;;;;;;12.99;100.00;96321.59;10326670;28;20202;-57
2022/06/07 21:29:51;;;;;;;16.42;14.65;;;;;;;13.04;100.00;96324.47;10326399;28;20217;-54
2022/06/07 21:34:51;;;;;;;18.92;15.57;;;;;;;13.11;100.00;96321.94;10326350;28;20189;-56
2022/06/07 21:39:52;;;;;;;19.30;15.00;;;;;;;13.12;100.00;96319.13;10325970;28;20220;-56
2022/06/07 21:44:52;;;;;;;18.92;16.25;;;;;;;13.10;100.00;96313.22;10325852;28;20316;-57
2022/06/07 21:49:52;;;;;;;22.58;16.80;;;;;;;13.14;100.00;96308.41;10326420;28;20221;-58
2022/06/07 21:54:53;;;;;;;23.75;19.33;;;;;;;13.15;100.00;96316.13;10326051;28;20196;-54
2022/06/07 21:59:54;;;;;;;20.80;18.58;;;;;;;13.19;100.00;96306.88;10326503;28;20304;-56
2022/06/07 22:04:54;;;;;;;23.55;19.83;;;;;;;13.08;100.00;96306.50;10325790;28;20194;-56
2022/06/07 22:09:55;;;;;;;21.83;18.20;;;;;;;13.09;100.00;96314.22;10326368;28;20747;-56
2022/06/07 22:14:55;;;;;;;22.63;18.88;;;;;;;13.08;100.00;96304.72;10326021;28;20676;-55
2022/06/07 22:19:55;;;;;;;24.55;20.02;;;;;;;13.01;100.00;96303.81;10325728;28;20317;-59
2022/06/07 22:24:56;;;;;;;21.48;19.13;;;;;;;12.88;100.00;96293.94;10328023;28;20202;-59
2022/06/07 22:29:56;;;;;;;25.05;20.02;;;;;;;12.88;100.00;96291.31;10333147;28;20218;-57
2022/06/07 22:34:57;;;;;;;24.33;20.35;;;;;;;12.79;100.00;96282.69;10333336;28;20190;-59
2022/06/07 22:39:57;;;;;;;29.25;20.40;;;;;;;12.70;100.00;96275.88;10332973;28;20597;-53
2022/06/07 22:44:58;;;;;;;26.17;21.08;;;;;;;12.63;100.00;96272.34;10332324;28;20268;-56
2022/06/07 22:49:58;;;;;;;26.00;20.60;;;;;;;12.62;100.00;96268.91;10332716;28;20240;-58
2022/06/07 22:55:05;;;;;;;24.63;21.50;;;;;;;12.56;100.00;96268.81;10332201;28;20194;-57
2022/06/07 23:00:12;;;;;;;22.98;19.10;;;;;;;12.48;100.00;96278.41;10331606;28;20205;-59
2022/06/07 23:05:13;;;;;;;26.40;21.10;;;;;;;12.39;100.00;96271.59;10331734;28;20586;-56
2022/06/07 23:10:16;;;;;;;24.17;21.30;;;;;;;12.26;100.00;96277.44;10332340;28;20221;-56
2022/06/07 23:20:53;;;;;;;27.00;21.58;;;;;;;12.12;100.00;96265.91;10258344;28;20229;-54
2022/06/07 23:25:53;;;;;;;24.65;20.25;;;;;;;12.06;100.00;96265.81;10331396;28;20256;-54
2022/06/07 23:30:53;;;;;;;25.23;20.42;;;;;;;12.05;100.00;96266.78;10330950;28;20194;-56
2022/06/07 23:35:54;;;;;;;27.67;21.52;;;;;;;11.90;100.00;96270.16;10330797;28;20214;-53
2022/06/07 23:40:54;;;;;;;26.77;21.10;;;;;;;11.87;100.00;96264.47;10330442;28;20339;-53
2022/06/07 23:45:55;;;;;;;30.95;20.60;;;;;;;11.80;100.00;96264.31;10330107;28;20221;-53
2022/06/07 23:50:56;;;;;;;23.83;19.15;;;;;;;11.82;100.00;96253.66;10330487;28;20190;-55
2022/06/07 23:55:57;;;;;;;26.10;19.20;;;;;;;11.85;100.00;96258.56;10329730;28;20214;-57
